createdAt,value
2023-06-11T00:01:55.545Z,99952.19
2023-06-11T00:04:27.072Z,99934.72
2023-06-11T00:06:57.463Z,99950.69
2023-06-11T00:09:25.090Z,99927.13
2023-06-11T00:11:54.815Z,99944.56
2023-06-11T00:14:23.707Z,99962.13
2023-06-11T00:16:51.551Z,99960.50
2023-06-11T00:19:21.735Z,99962.22
2023-06-11T00:21:50.700Z,99948.97
2023-06-11T00:24:18.185Z,99951.56
2023-06-11T00:26:45.698Z,99946.03
2023-06-11T00:29:12.871Z,99959.03
2023-06-11T00:31:39.972Z,99950.38
2023-06-11T00:34:07.245Z,99939.56
2023-06-11T00:36:34.558Z,99962.41
2023-06-11T00:39:01.962Z,99948.50
2023-06-11T00:41:31.189Z,99952.91
2023-06-11T00:43:58.495Z,99951.00
2023-06-11T00:46:25.851Z,99956.19
2023-06-11T00:48:52.987Z,99937.78
2023-06-11T00:51:23.604Z,99953.50
2023-06-11T00:53:52.389Z,99967.56
2023-06-11T00:56:20.672Z,99961.31
2023-06-11T00:58:50.231Z,99944.88
2023-06-11T01:01:30.569Z,99958.13
2023-06-11T01:04:01.964Z,99947.59
2023-06-11T01:06:34.505Z,99948.50
2023-06-11T01:09:02.941Z,99951.94
2023-06-11T01:11:30.602Z,99941.47
2023-06-11T01:13:58.087Z,99949.25
2023-06-11T01:16:35.750Z,99942.50
2023-06-11T01:19:21.635Z,99943.03
2023-06-11T01:21:54.921Z,99950.94
2023-06-11T01:24:44.131Z,99958.16
2023-06-11T01:27:30.609Z,99953.50
2023-06-11T01:29:58.418Z,99951.69
2023-06-11T01:32:29.072Z,99949.09
2023-06-11T01:35:03.043Z,99949.97
2023-06-11T01:37:30.909Z,99953.59
2023-06-11T01:39:57.889Z,99935.31
2023-06-11T01:42:24.829Z,99956.19
2023-06-11T01:44:51.863Z,99938.97
2023-06-11T01:47:18.892Z,99942.44
2023-06-11T01:49:46.235Z,99953.78
2023-06-11T01:52:13.343Z,99946.03
2023-06-11T01:54:40.181Z,99945.19
2023-06-11T01:57:07.776Z,99947.25
2023-06-11T01:59:34.772Z,99949.22
2023-06-11T02:02:01.832Z,99963.87
2023-06-11T02:04:28.908Z,99958.94
2023-06-11T02:06:56.111Z,99963.41
2023-06-11T02:09:23.630Z,99958.13
2023-06-11T02:11:50.553Z,99952.88
2023-06-11T02:14:17.512Z,99957.97
2023-06-11T02:16:44.566Z,99964.91
2023-06-11T02:19:11.795Z,99966.88
2023-06-11T02:21:38.784Z,99970.31
2023-06-11T02:24:06.099Z,99962.69
2023-06-11T02:26:33.113Z,99965.47
2023-06-11T02:29:00.117Z,99951.47
2023-06-11T02:31:27.110Z,99962.00
2023-06-11T02:33:54.214Z,99961.94
2023-06-11T02:36:21.420Z,99977.84
2023-06-11T02:38:48.464Z,99961.06
2023-06-11T02:41:16.830Z,99964.59
2023-06-11T02:43:43.734Z,99964.34
2023-06-11T02:46:11.112Z,99975.88
2023-06-11T02:48:38.123Z,99955.84
2023-06-11T02:51:05.074Z,99957.59
2023-06-11T02:53:32.185Z,99979.25
2023-06-11T02:55:59.258Z,99980.38
2023-06-11T02:58:26.174Z,99983.97
2023-06-11T03:00:53.388Z,99966.62
2023-06-11T03:03:20.366Z,99977.91
2023-06-11T03:05:47.588Z,99961.28
2023-06-11T03:08:14.714Z,99972.41
2023-06-11T03:10:41.597Z,99983.22
2023-06-11T03:13:08.724Z,99976.44
2023-06-11T03:15:36.136Z,99985.97
2023-06-11T03:18:04.629Z,99977.31
2023-06-11T03:20:31.760Z,99978.16
2023-06-11T03:22:58.798Z,99984.06
2023-06-11T03:25:25.697Z,99984.06
2023-06-11T03:27:52.605Z,99999.16
2023-06-11T03:30:19.678Z,99995.34
2023-06-11T03:32:46.776Z,99988.22
2023-06-11T03:35:14.056Z,100000.53
2023-06-11T03:37:41.146Z,100003.75
2023-06-11T03:40:09.049Z,100008.09
2023-06-11T03:42:36.156Z,99994.00
2023-06-11T03:45:03.524Z,100009.19
2023-06-11T03:47:30.683Z,100005.47
2023-06-11T03:49:57.594Z,99996.22
2023-06-11T03:52:24.575Z,99992.53
2023-06-11T03:54:51.647Z,99992.38
2023-06-11T03:57:20.144Z,100001.06
2023-06-11T03:59:47.039Z,100013.69
2023-06-11T04:02:14.007Z,99993.75
2023-06-11T04:04:41.500Z,99998.81
2023-06-11T04:07:08.644Z,100015.44
2023-06-11T04:09:35.798Z,100014.50
2023-06-11T04:12:02.769Z,99998.97
2023-06-11T04:14:29.881Z,100004.94
2023-06-11T04:16:56.884Z,99999.22
2023-06-11T04:19:23.966Z,100000.69
2023-06-11T04:21:51.037Z,100014.03
2023-06-11T04:24:18.036Z,99999.28
2023-06-11T04:26:45.383Z,99995.50
2023-06-11T04:29:12.425Z,100008.75
2023-06-11T04:31:43.229Z,100014.38
2023-06-11T04:34:12.038Z,100012.28
2023-06-11T04:36:39.604Z,99997.84
2023-06-11T04:39:06.535Z,100025.53
2023-06-11T04:41:33.694Z,100000.94
2023-06-11T04:44:02.345Z,100020.00
2023-06-11T04:46:29.625Z,100011.00
2023-06-11T04:49:01.357Z,100006.44
2023-06-11T04:51:34.205Z,100012.12
2023-06-11T04:54:03.108Z,100010.34
2023-06-11T04:56:30.717Z,100010.00
2023-06-11T04:58:57.631Z,100019.87
2023-06-11T05:01:31.661Z,100007.41
2023-06-11T05:03:58.784Z,100017.53
2023-06-11T05:06:26.914Z,100012.69
2023-06-11T05:08:54.043Z,100012.31
2023-06-11T05:11:21.033Z,100017.28
2023-06-11T05:13:48.189Z,100009.59
2023-06-11T05:16:15.552Z,100013.47
2023-06-11T05:18:42.571Z,100010.69
2023-06-11T05:21:10.398Z,100021.66
2023-06-11T05:23:40.380Z,100021.44
2023-06-11T05:26:13.076Z,100009.84
2023-06-11T05:28:41.146Z,100015.34
2023-06-11T05:31:10.472Z,100029.31
2023-06-11T05:33:37.633Z,100025.41
2023-06-11T05:36:06.141Z,100024.13
2023-06-11T05:38:33.220Z,99999.53
2023-06-11T05:41:00.385Z,100018.12
2023-06-11T05:43:27.378Z,100023.16
2023-06-11T05:45:54.689Z,100017.94
2023-06-11T05:48:21.731Z,100009.31
2023-06-11T05:50:48.771Z,100030.34
2023-06-11T05:53:16.060Z,100019.59
2023-06-11T05:55:43.369Z,100032.47
2023-06-11T05:58:10.547Z,100031.22
2023-06-11T06:00:37.529Z,100031.72
2023-06-11T06:03:05.901Z,100011.34
2023-06-11T06:05:33.196Z,100009.69
2023-06-11T06:08:00.500Z,100019.50
2023-06-11T06:10:27.479Z,100013.44
2023-06-11T06:12:54.445Z,100010.63
2023-06-11T06:15:21.575Z,100022.56
2023-06-11T06:17:48.575Z,100038.62
2023-06-11T06:20:15.775Z,100031.13
2023-06-11T06:22:42.745Z,100025.25
2023-06-11T06:25:10.039Z,100028.62
2023-06-11T06:27:37.816Z,100036.13
2023-06-11T06:30:07.160Z,100044.94
2023-06-11T06:32:34.336Z,100039.25
2023-06-11T06:35:01.295Z,100038.66
2023-06-11T06:37:29.030Z,100041.59
2023-06-11T06:39:56.395Z,100038.69
2023-06-11T06:42:23.601Z,100042.19
2023-06-11T06:44:50.485Z,100036.50
2023-06-11T06:47:17.535Z,100053.16
2023-06-11T06:49:44.647Z,100048.28
2023-06-11T06:52:13.208Z,100044.50
2023-06-11T06:54:40.527Z,100047.97
2023-06-11T06:57:11.724Z,100039.81
2023-06-11T06:59:38.662Z,100032.47
2023-06-11T07:02:09.537Z,100041.38
2023-06-11T07:04:37.183Z,100034.38
2023-06-11T07:07:04.684Z,100066.16
2023-06-11T07:09:31.677Z,100044.59
2023-06-11T07:11:58.707Z,100046.12
2023-06-11T07:14:25.863Z,100067.00
2023-06-11T07:16:52.931Z,100057.81
2023-06-11T07:19:19.877Z,100041.31
2023-06-11T07:21:46.786Z,100046.81
2023-06-11T07:24:13.934Z,100060.87
2023-06-11T07:26:41.985Z,100054.28
2023-06-11T07:29:11.755Z,100056.84
2023-06-11T07:31:39.750Z,100065.19
2023-06-11T07:34:07.645Z,100069.50
2023-06-11T07:36:34.864Z,100051.91
2023-06-11T07:39:02.315Z,100046.53
2023-06-11T07:41:29.359Z,100048.41
2023-06-11T07:43:56.295Z,100059.56
2023-06-11T07:46:23.244Z,100046.78
2023-06-11T07:48:50.315Z,100044.06
2023-06-11T07:51:20.477Z,100060.94
2023-06-11T07:53:47.892Z,100061.84
2023-06-11T07:56:14.836Z,100050.69
2023-06-11T07:58:41.959Z,100051.59
2023-06-11T08:01:09.685Z,100054.81
2023-06-11T08:03:36.855Z,100051.06
2023-06-11T08:06:04.176Z,100059.84
2023-06-11T08:08:31.133Z,100057.63
2023-06-11T08:10:58.056Z,100064.19
2023-06-11T08:13:25.129Z,100079.00
2023-06-11T08:15:52.048Z,100074.59
2023-06-11T08:18:20.184Z,100060.69
2023-06-11T08:20:47.582Z,100065.34
2023-06-11T08:23:14.649Z,100063.00
2023-06-11T08:25:42.010Z,100070.03
2023-06-11T08:28:08.999Z,100075.13
2023-06-11T08:30:35.967Z,100069.84
2023-06-11T08:33:03.486Z,100065.34
2023-06-11T08:35:30.505Z,100076.12
2023-06-11T08:37:57.462Z,100060.81
2023-06-11T08:40:25.036Z,100073.25
2023-06-11T08:42:52.801Z,100069.94
2023-06-11T08:45:20.104Z,100062.53
2023-06-11T08:47:51.443Z,100075.88
2023-06-11T08:50:25.001Z,100069.91
2023-06-11T08:52:53.072Z,100074.34
2023-06-11T08:55:20.961Z,100076.97
2023-06-11T08:57:48.119Z,100074.00
2023-06-11T09:00:15.560Z,100082.84
2023-06-11T09:02:43.211Z,100082.59
2023-06-11T09:05:12.263Z,100087.63
2023-06-11T09:07:48.144Z,100068.72
2023-06-11T09:10:15.500Z,100087.06
2023-06-11T09:12:42.597Z,100093.59
2023-06-11T09:15:10.863Z,100074.47
2023-06-11T09:17:39.749Z,100085.63
2023-06-11T09:20:09.835Z,100087.00
2023-06-11T09:22:38.960Z,100078.31
2023-06-11T09:25:07.987Z,100086.03
2023-06-11T09:27:35.888Z,100084.97
2023-06-11T09:30:13.647Z,100089.34
2023-06-11T09:32:43.202Z,100081.19
2023-06-11T09:35:11.367Z,100091.50
2023-06-11T09:37:45.524Z,100087.06
2023-06-11T09:40:16.028Z,100100.22
2023-06-11T09:42:47.584Z,100085.56
2023-06-11T09:45:22.315Z,100092.97
2023-06-11T09:47:50.151Z,100090.34
2023-06-11T09:50:19.014Z,100094.56
2023-06-11T09:52:47.003Z,100096.69
2023-06-11T09:55:15.183Z,100087.25
2023-06-11T09:57:43.589Z,100097.56
2023-06-11T10:00:13.777Z,100087.69
2023-06-11T10:02:43.077Z,100088.84
2023-06-11T10:05:11.882Z,100089.38
2023-06-11T10:08:09.925Z,100088.09
2023-06-11T10:10:43.109Z,100081.06
2023-06-11T10:13:10.225Z,100098.56
2023-06-11T10:15:38.072Z,100094.31
2023-06-11T10:18:15.194Z,100086.75
2023-06-11T10:20:52.807Z,100101.44
2023-06-11T10:23:21.168Z,100101.53
2023-06-11T10:25:56.177Z,100077.41
2023-06-11T10:28:38.628Z,100098.34
2023-06-11T10:31:06.424Z,100089.06
2023-06-11T10:33:51.549Z,100082.53
2023-06-11T10:36:33.207Z,100078.34
2023-06-11T10:39:24.852Z,100079.56
2023-06-11T10:42:03.270Z,100086.31
2023-06-11T10:44:30.998Z,100087.91
2023-06-11T10:47:01.670Z,100083.97
2023-06-11T10:49:29.653Z,100090.66
2023-06-11T10:51:57.172Z,100074.97
2023-06-11T10:54:28.552Z,100076.25
2023-06-11T10:56:55.930Z,100076.28
2023-06-11T10:59:24.419Z,100076.41
2023-06-11T11:01:55.062Z,100089.19
2023-06-11T11:04:25.074Z,100082.69
2023-06-11T11:06:56.628Z,100073.81
2023-06-11T11:09:24.263Z,100074.66
2023-06-11T11:11:51.724Z,100081.03
2023-06-11T11:14:19.112Z,100071.59
2023-06-11T11:16:49.544Z,100075.41
2023-06-11T11:19:16.931Z,100067.59
2023-06-11T11:21:52.150Z,100076.34
2023-06-11T11:24:19.938Z,100071.25
2023-06-11T11:26:47.332Z,100058.22
2023-06-11T11:29:15.206Z,100060.50
2023-06-11T11:31:43.987Z,100064.78
2023-06-11T11:34:11.240Z,100074.41
2023-06-11T11:36:38.791Z,100056.94
2023-06-11T11:39:12.722Z,100058.59
2023-06-11T11:41:49.883Z,100072.41
2023-06-11T11:44:17.882Z,100057.09
2023-06-11T11:46:45.373Z,100059.81
2023-06-11T11:49:13.703Z,100058.47
2023-06-11T11:51:42.375Z,100058.31
2023-06-11T11:54:16.394Z,100057.94
2023-06-11T11:56:44.093Z,100055.19
2023-06-11T11:59:25.363Z,100054.34
2023-06-11T12:01:58.277Z,100054.00
2023-06-11T12:04:39.174Z,100044.81
2023-06-11T12:07:13.661Z,100057.72
2023-06-11T12:09:41.264Z,100054.81
2023-06-11T12:12:09.485Z,100046.81
2023-06-11T12:14:36.652Z,100051.63
2023-06-11T12:17:05.215Z,100040.28
2023-06-11T12:19:34.352Z,100034.34
2023-06-11T12:22:01.637Z,100021.28
2023-06-11T12:24:30.502Z,100012.63
2023-06-11T12:26:57.783Z,100034.72
2023-06-11T12:29:24.728Z,100028.56
2023-06-11T12:31:52.001Z,100033.22
2023-06-11T12:34:19.276Z,100034.88
2023-06-11T12:36:47.853Z,100031.38
2023-06-11T12:39:15.348Z,100021.03
2023-06-11T12:41:42.669Z,100018.12
2023-06-11T12:44:09.741Z,100032.66
2023-06-11T12:46:37.548Z,100016.59
2023-06-11T12:49:05.257Z,100022.91
2023-06-11T12:51:32.432Z,100014.09
2023-06-11T12:53:59.585Z,100020.22
2023-06-11T12:56:27.234Z,100029.16
2023-06-11T12:58:54.512Z,100014.47
2023-06-11T13:01:21.959Z,100006.41
2023-06-11T13:03:49.353Z,100033.53
2023-06-11T13:06:16.587Z,100011.88
2023-06-11T13:08:44.046Z,100018.62
2023-06-11T13:11:11.711Z,100014.91
2023-06-11T13:13:39.007Z,100019.41
2023-06-11T13:16:06.284Z,100017.59
2023-06-11T13:18:33.708Z,100021.47
2023-06-11T13:21:01.617Z,100029.44
2023-06-11T13:23:32.944Z,100019.91
2023-06-11T13:26:01.338Z,100030.87
2023-06-11T13:28:28.773Z,100023.13
2023-06-11T13:30:57.458Z,100008.88
2023-06-11T13:33:24.545Z,100019.47
2023-06-11T13:35:51.847Z,100031.47
2023-06-11T13:38:19.116Z,100033.19
2023-06-11T13:40:46.221Z,100022.84
2023-06-11T13:43:13.410Z,100027.31
2023-06-11T13:45:47.586Z,100028.97
2023-06-11T13:48:16.324Z,100025.03
2023-06-11T13:50:48.381Z,100025.31
2023-06-11T13:53:16.439Z,100018.94
2023-06-11T13:55:46.076Z,100012.53
2023-06-11T13:58:17.312Z,100036.09
2023-06-11T14:00:44.680Z,100032.38
2023-06-11T14:03:12.186Z,100013.59
2023-06-11T14:05:39.412Z,100027.06
2023-06-11T14:08:06.743Z,100016.75
2023-06-11T14:10:33.719Z,100014.88
2023-06-11T14:13:00.921Z,100014.97
2023-06-11T14:15:28.491Z,100018.53
2023-06-11T14:17:55.702Z,100027.94
2023-06-11T14:20:22.804Z,100030.81
2023-06-11T14:22:50.189Z,100019.03
2023-06-11T14:25:17.469Z,100022.97
2023-06-11T14:27:44.848Z,100023.81
2023-06-11T14:30:13.497Z,100027.78
2023-06-11T14:32:40.685Z,100025.91
2023-06-11T14:35:08.197Z,100036.66
2023-06-11T14:37:35.190Z,100037.50
2023-06-11T14:40:02.420Z,100034.66
2023-06-11T14:42:29.557Z,100021.75
2023-06-11T14:44:57.033Z,100024.22
2023-06-11T14:47:24.593Z,100018.75
2023-06-11T14:49:52.583Z,100024.53
2023-06-11T14:52:19.797Z,100029.16
2023-06-11T14:54:46.814Z,100021.16
2023-06-11T14:57:15.677Z,100020.84
2023-06-11T14:59:43.920Z,100022.59
2023-06-11T15:02:11.573Z,100018.59
2023-06-11T15:04:41.966Z,100026.81
2023-06-11T15:07:20.233Z,100018.91
2023-06-11T15:09:52.315Z,100026.63
2023-06-11T15:12:19.539Z,100037.94
2023-06-11T15:14:46.801Z,100037.97
2023-06-11T15:17:14.012Z,100042.69
2023-06-11T15:19:44.094Z,100022.75
2023-06-11T15:22:11.454Z,100025.62
2023-06-11T15:24:38.432Z,100039.00
2023-06-11T15:27:06.193Z,100053.53
2023-06-11T15:29:33.208Z,100035.09
2023-06-11T15:32:01.890Z,100050.28
2023-06-11T15:34:29.398Z,100038.66
2023-06-11T15:36:56.398Z,100045.28
2023-06-11T15:39:24.176Z,100056.59
2023-06-11T15:41:51.336Z,100059.12
2023-06-11T15:44:18.589Z,100049.50
2023-06-11T15:46:45.608Z,100063.87
2023-06-11T15:49:12.744Z,100058.72
2023-06-11T15:51:39.764Z,100072.94
2023-06-11T15:54:07.111Z,100064.06
2023-06-11T15:56:34.067Z,100048.84
2023-06-11T15:59:01.020Z,100065.31
2023-06-11T16:01:29.648Z,100071.66
2023-06-11T16:03:57.279Z,100055.66
2023-06-11T16:06:24.500Z,100057.34
2023-06-11T16:08:52.396Z,100081.88
2023-06-11T16:11:19.633Z,100084.69
2023-06-11T16:13:46.551Z,100074.22
2023-06-11T16:16:14.221Z,100076.19
2023-06-11T16:18:41.627Z,100076.94
2023-06-11T16:21:08.946Z,100069.19
2023-06-11T16:23:36.151Z,100082.09
2023-06-11T16:26:03.813Z,100093.56
2023-06-11T16:28:30.745Z,100096.12
2023-06-11T16:30:57.763Z,100080.41
2023-06-11T16:33:24.924Z,100095.47
2023-06-11T16:35:52.037Z,100098.25
2023-06-11T16:38:20.586Z,100101.84
2023-06-11T16:40:47.693Z,100094.81
2023-06-11T16:43:14.729Z,100093.28
2023-06-11T16:45:41.862Z,100100.03
2023-06-11T16:48:09.006Z,100108.72
2023-06-11T16:50:36.151Z,100102.28
2023-06-11T16:53:03.097Z,100111.78
2023-06-11T16:55:30.110Z,100121.34
2023-06-11T16:57:58.243Z,100114.97
2023-06-11T17:00:25.499Z,100108.59
2023-06-11T17:02:55.923Z,100103.28
2023-06-11T17:05:23.372Z,100117.66
2023-06-11T17:07:58.400Z,100102.22
2023-06-11T17:10:29.116Z,100123.56
2023-06-11T17:12:56.144Z,100122.69
2023-06-11T17:15:23.120Z,100107.84
2023-06-11T17:17:50.172Z,100122.00
2023-06-11T17:20:18.086Z,100120.81
2023-06-11T17:22:47.076Z,100121.06
2023-06-11T17:25:15.240Z,100119.00
2023-06-11T17:27:42.383Z,100119.53
2023-06-11T17:30:09.743Z,100103.56
2023-06-11T17:32:37.469Z,100121.84
2023-06-11T17:35:05.169Z,100125.06
2023-06-11T17:37:32.273Z,100114.81
2023-06-11T17:39:59.503Z,100124.25
2023-06-11T17:42:26.476Z,100106.09
2023-06-11T17:44:53.667Z,100125.69
2023-06-11T17:47:21.182Z,100113.16
2023-06-11T17:49:50.065Z,100124.94
2023-06-11T17:52:18.290Z,100128.41
2023-06-11T17:54:45.912Z,100114.81
2023-06-11T17:57:14.022Z,100124.97
2023-06-11T17:59:42.107Z,100128.84
2023-06-11T18:02:10.017Z,100128.44
2023-06-11T18:04:37.529Z,100121.78
2023-06-11T18:07:06.306Z,100115.41
2023-06-11T18:09:34.158Z,100125.34
2023-06-11T18:12:03.895Z,100132.22
2023-06-11T18:14:32.752Z,100137.75
2023-06-11T18:17:00.609Z,100142.81
2023-06-11T18:19:28.250Z,100136.44
2023-06-11T18:21:56.093Z,100144.47
2023-06-11T18:24:24.129Z,100150.97
2023-06-11T18:26:52.695Z,100148.22
2023-06-11T18:29:20.995Z,100148.25
2023-06-11T18:31:49.790Z,100160.19
2023-06-11T18:34:18.585Z,100159.50
2023-06-11T18:36:47.679Z,100156.91
2023-06-11T18:39:15.595Z,100158.16
2023-06-11T18:41:43.941Z,100161.16
2023-06-11T18:44:12.306Z,100162.91
2023-06-11T18:46:40.604Z,100174.00
2023-06-11T18:49:09.031Z,100184.47
2023-06-11T18:51:37.297Z,100170.91
2023-06-11T18:54:05.909Z,100195.84
2023-06-11T18:56:34.210Z,100196.09
2023-06-11T18:59:02.044Z,100201.78
2023-06-11T19:01:30.584Z,100198.47
2023-06-11T19:03:59.328Z,100197.50
2023-06-11T19:06:28.406Z,100211.56
2023-06-11T19:08:56.115Z,100207.09
2023-06-11T19:11:23.984Z,100216.41
2023-06-11T19:13:52.135Z,100228.94
2023-06-11T19:16:20.430Z,100200.59
2023-06-11T19:18:48.907Z,100207.53
2023-06-11T19:21:18.297Z,100212.31
2023-06-11T19:23:46.710Z,100202.34
2023-06-11T19:26:17.078Z,100221.03
2023-06-11T19:28:45.126Z,100208.34
2023-06-11T19:31:13.713Z,100230.47
2023-06-11T19:33:41.620Z,100224.66
2023-06-11T19:36:09.647Z,100234.03
2023-06-11T19:38:37.686Z,100234.47
2023-06-11T19:41:06.070Z,100235.75
2023-06-11T19:43:34.711Z,100235.16
2023-06-11T19:46:02.359Z,100238.78
2023-06-11T19:48:30.653Z,100227.88
2023-06-11T19:50:58.921Z,100219.69
2023-06-11T19:53:26.632Z,100238.09
2023-06-11T19:55:54.487Z,100218.47
2023-06-11T19:58:22.075Z,100221.91
2023-06-11T20:00:50.800Z,100247.91
2023-06-11T20:03:19.832Z,100230.84
2023-06-11T20:05:47.880Z,100235.88
2023-06-11T20:08:15.740Z,100252.38
2023-06-11T20:10:45.113Z,100237.75
2023-06-11T20:13:13.276Z,100251.38
2023-06-11T20:15:40.581Z,100238.91
2023-06-11T20:18:07.612Z,100250.81
2023-06-11T20:20:34.988Z,100243.31
2023-06-11T20:23:01.978Z,100253.19
2023-06-11T20:25:29.955Z,100251.75
2023-06-11T20:27:57.585Z,100234.38
2023-06-11T20:30:25.839Z,100248.59
2023-06-11T20:32:52.903Z,100229.63
2023-06-11T20:35:20.011Z,100237.72
2023-06-11T20:37:47.159Z,100257.53
2023-06-11T20:40:14.532Z,100254.34
2023-06-11T20:42:41.523Z,100243.28
2023-06-11T20:45:09.293Z,100265.75
2023-06-11T20:47:36.737Z,100275.09
2023-06-11T20:50:04.096Z,100262.38
2023-06-11T20:52:31.596Z,100266.34
2023-06-11T20:54:58.818Z,100265.97
2023-06-11T20:57:26.139Z,100241.34
2023-06-11T20:59:53.164Z,100256.56
2023-06-11T21:02:20.341Z,100261.44
2023-06-11T21:04:47.314Z,100239.91
2023-06-11T21:07:14.577Z,100250.41
2023-06-11T21:09:41.793Z,100246.72
2023-06-11T21:12:09.183Z,100251.44
2023-06-11T21:14:36.098Z,100243.28
2023-06-11T21:17:03.031Z,100247.59
2023-06-11T21:19:30.141Z,100266.81
2023-06-11T21:21:57.183Z,100269.12
2023-06-11T21:24:24.095Z,100269.47
2023-06-11T21:26:51.519Z,100269.81
2023-06-11T21:29:18.614Z,100264.72
2023-06-11T21:31:45.752Z,100246.87
2023-06-11T21:34:12.784Z,100260.19
2023-06-11T21:36:39.836Z,100261.91
2023-06-11T21:39:06.763Z,100259.66
2023-06-11T21:41:33.669Z,100256.25
2023-06-11T21:44:00.666Z,100251.09
2023-06-11T21:46:27.714Z,100260.78
2023-06-11T21:48:54.748Z,100261.00
2023-06-11T21:51:22.254Z,100259.59
2023-06-11T21:53:49.175Z,100271.84
2023-06-11T21:56:16.395Z,100265.75
2023-06-11T21:58:43.372Z,100261.22
2023-06-11T22:01:10.934Z,100262.31
2023-06-11T22:03:38.171Z,100260.28
2023-06-11T22:06:05.940Z,100242.00
2023-06-11T22:08:33.173Z,100261.16
2023-06-11T22:11:00.213Z,100254.09
2023-06-11T22:13:27.989Z,100229.63
2023-06-11T22:15:54.890Z,100237.72
2023-06-11T22:18:22.851Z,100233.56
2023-06-11T22:20:50.008Z,100247.13
2023-06-11T22:23:17.388Z,100251.69
2023-06-11T22:25:44.529Z,100244.03
2023-06-11T22:28:11.449Z,100244.63
2023-06-11T22:30:52.661Z,100242.09
2023-06-11T22:33:24.152Z,100244.09
2023-06-11T22:35:51.247Z,100231.88
2023-06-11T22:38:18.240Z,100238.22
2023-06-11T22:40:45.182Z,100241.56
2023-06-11T22:43:12.245Z,100237.34
2023-06-11T22:45:39.197Z,100235.69
2023-06-11T22:48:06.527Z,100242.16
2023-06-11T22:50:35.104Z,100226.97
2023-06-11T22:53:03.594Z,100238.38
2023-06-11T22:55:30.707Z,100224.59
2023-06-11T22:57:57.621Z,100225.31
2023-06-11T23:00:24.595Z,100229.53
2023-06-11T23:02:51.547Z,100228.00
2023-06-11T23:05:18.615Z,100223.63
2023-06-11T23:07:47.722Z,100222.16
2023-06-11T23:10:18.104Z,100238.06
2023-06-11T23:12:45.369Z,100235.44
2023-06-11T23:15:12.237Z,100237.13
2023-06-11T23:17:41.237Z,100230.16
2023-06-11T23:20:10.171Z,100227.00
2023-06-11T23:22:40.708Z,100228.00
2023-06-11T23:25:09.396Z,100218.72
2023-06-11T23:27:36.406Z,100226.75
2023-06-11T23:30:06.186Z,100211.03
2023-06-11T23:32:34.062Z,100227.03
2023-06-11T23:35:01.379Z,100213.06
2023-06-11T23:37:29.288Z,100232.56
2023-06-11T23:39:56.373Z,100230.03
2023-06-11T23:42:23.363Z,100215.16
2023-06-11T23:44:50.215Z,100225.84
2023-06-11T23:47:17.148Z,100221.28
2023-06-11T23:49:44.244Z,100223.09
2023-06-11T23:52:11.451Z,100221.47
2023-06-11T23:54:38.968Z,100224.41
2023-06-11T23:57:06.487Z,100213.84
2023-06-11T23:59:33.544Z,100216.72
